Aérodrome :
LOGIN :

S'inscrire | Disclaimer

   EN    FR    IT 

 










Légende :    VFR   VFR Marginal   IFR   IFR Intensif   IFR Très Intensif
Visi : 
Plafond : 
>= 8 km
>= 3000ft
5 à 8 km
1000 à 3000 ft
1500m à 5 km
500 à 1000 ft
800 à 1500m
200 à 500 ft
< 800m
< 200 ft
Symboles :   Orages  Brouillard  Fortes neiges  Fortes précipitations  Vent > 20 kt
SIGMETs :   Divers  Orages  Givrage  Turbulence  Onde Orograph.  Cendres Volcan.







- Altitude de l'aérodrome : 13 ft
- Code IATA : SNR
- Voir les cartes d'approche


LFRZ - St-Nazaire

DERNIER METAR :
  • 291100Z AUTO 13012KT 100V160 9999 FEW013 BKN054 16/03 Q1013 NOSIG

METARs EXPIRÉS :
  • 291030Z AUTO 12009KT 090V160 9999 SCT049 BKN056 16/04 Q1013 NOSIG
  • 291000Z AUTO 14010KT 100V170 9999 FEW041 15/05 Q1013 NOSIG
  • 290930Z AUTO 12009KT 090V150 CAVOK 15/05 Q1014 NOSIG
  • 290900Z AUTO 13009KT 100V160 CAVOK 14/06 Q1014 NOSIG
  • 290830Z AUTO 12008KT CAVOK 13/07 Q1014 NOSIG

TAF TAF LFRZ
Valide du 29 à 06h jusqu'au 30 à 06h UTC


290500Z 2906/3006 08005KT CAVOK
TEMPO 2906/2907 0400 FG VV///
BECMG 2909/2911 15010KT
BECMG 3003/3006 RA SCT015 BKN040
Pas de NOTAMs connus pour ce terrain.



MET'MAP, la Météo Aéronautique d'un coup d'oeil ! - Copyright ORBIFLY Décembre 2007 - Disclaimer

ORBIFLY MET'MAP TEAM :

Programmation & Développement : Alexandra Zaïnal
Conception & Développement : Baudouin d'Aumeries
Co-Programmation & Développement : Marc-Olivier Méhu
Soutien technique & logistique : Manuel Goepfert

Contact : metmap@orbifly.com




SOURCES & CREDITS :

   NOAA